KSGR/SGR METAR and TAF weather

Enter ICAO airport designator
Station Type Date Time Source
KSGR METAR 2019/10/15 17:53 UTC NOAA

KSGR 151753Z 23011KT 10SM FEW040 33/23 A2991 RMK AO2 SLP130 T03280228 10328 20256 58008


Station Type Date Time Source
KSGR Decoded METAR 2019/10/15 17:53 UTC NOAA

SUGARLAND REGIONAL AIRPORT, TX, United States (KSGR) 29-37N 095-39W
Oct 15, 2019 - 01:53 PM EDT / 2019.10.15 1753 UTC
Wind: from the SW (230 degrees) at 13 MPH (11 KT):0
Visibility: 10 mile(s):0
Sky conditions: mostly clear
Temperature: 91.0 F (32.8 C)
Heat index: 99.1 F (37.3 C):1
Dew Point: 73.0 F (22.8 C)
Relative Humidity: 55%
Pressure (altimeter): 29.91 in. Hg (1012 hPa)
Pressure tendency: 0.02 inches (0.8 hPa) lower than three hours ago
ob: KSGR 151753Z 23011KT 10SM FEW040 33/23 A2991 RMK AO2 SLP130 T03280228 10328 20256 58008
cycle: 18

Station Type Date Time Source
KSGR TAF 2019/10/15 18:22 UTC NOAA

TAF KSGR 151720Z 1518/1618 21006KT P6SM SCT040
FM160000 18005KT P6SM BKN050 BKN120
FM160600 21007KT P6SM VCSH SCT025 BKN200
FM161000 34010KT P6SM VCTS BKN035CB BKN250
TEMPO 1611/1613 -TSRA BKN012 OVC025CB
FM161600 35010KT P6SM BKN020

Example: see airport list